Sugar Bush, Minnesota
Current Conditions -  °F | °C
As of 6:13 AM on Monday 20 Oct 2014 (Local Time) from KBJI Reporting Station
Clear Clear  
Wind Chill: -1°   Ceiling: Unl
Heat Index:   Visibility: 10mi
Dew Point:   Wind: 8mph
Humidity: 98%   Direction: 290°WNW
Pressure: 29.98"   Gusts: NA
Location:  47.5271°N, 94.7611°W
Report Text: KBJI 201113Z AUTO 29007KT 10SM CLR 03/02 A2998 RMK AO2 T00250022
Loading
Personal Weather Stations






























Interactive Weather Map
Tropical Storm Tracking
New forecast layout! Learn more

10-Day Weather Forecast

Advertisements
Track Severe Weather on mobile